createdAt,value
2019-03-22T00:07:55.696Z,100435.91
2019-03-22T00:17:56.709Z,100424.20
2019-03-22T00:27:57.503Z,100421.77
2019-03-22T00:37:58.161Z,100424.14
2019-03-22T00:47:59.944Z,100407.08
2019-03-22T00:58:03.697Z,100397.13
2019-03-22T01:08:04.506Z,100385.11
2019-03-22T01:18:14.489Z,100388.62
2019-03-22T01:28:18.636Z,100394.56
2019-03-22T01:38:19.361Z,100384.65
2019-03-22T01:48:22.093Z,100380.16
2019-03-22T01:58:22.946Z,100383.47
2019-03-22T02:08:24.713Z,100378.44
2019-03-22T02:18:30.491Z,100384.39
2019-03-22T02:28:31.292Z,100386.36
2019-03-22T02:38:32.517Z,100374.62
2019-03-22T02:48:33.367Z,100373.42
2019-03-22T02:58:36.098Z,100366.83
2019-03-22T03:08:37.970Z,100378.06
2019-03-22T03:18:45.431Z,100377.25
2019-03-22T03:28:46.285Z,100364.72
2019-03-22T03:38:47.023Z,100368.46
2019-03-22T03:48:47.776Z,100363.77
2019-03-22T03:58:52.553Z,100356.45
2019-03-22T04:08:53.097Z,100347.23
2019-03-22T04:18:54.871Z,100347.23
2019-03-22T04:29:06.572Z,100338.02
2019-03-22T04:39:07.182Z,100340.77
2019-03-22T04:49:08.472Z,100343.31
2019-03-22T04:59:18.937Z,100335.02
2019-03-22T05:09:16.230Z,100343.22
2019-03-22T05:19:19.402Z,100342.15
2019-03-22T05:29:30.150Z,100344.80
2019-03-22T05:39:23.169Z,100360.30
2019-03-22T05:49:24.910Z,100360.18
2019-03-22T05:59:25.596Z,100367.08
2019-03-22T06:09:26.401Z,100373.11
2019-03-22T06:19:27.289Z,100387.44
2019-03-22T06:29:30.098Z,100393.55
2019-03-22T06:39:30.929Z,100394.75
2019-03-22T06:49:34.811Z,100397.63
2019-03-22T06:59:36.555Z,100392.81
2019-03-22T07:09:37.221Z,100399.63
2019-03-22T07:19:38.066Z,100391.95
2019-03-22T07:29:38.784Z,100395.31
2019-03-22T07:39:40.458Z,100402.31
2019-03-22T07:49:41.213Z,100412.22
2019-03-22T07:59:43.942Z,100408.83
2019-03-22T08:09:44.657Z,100397.20
2019-03-22T08:19:45.550Z,100381.39
2019-03-22T08:29:48.309Z,100377.08
2019-03-22T08:39:49.067Z,100368.03
2019-03-22T08:49:49.964Z,100374.47
2019-03-22T08:59:50.870Z,100381.66
2019-03-22T09:09:54.422Z,100380.44
2019-03-22T09:19:57.271Z,100376.09
2019-03-22T09:29:57.986Z,100376.37
2019-03-22T09:39:59.796Z,100377.91
2019-03-22T09:50:00.640Z,100371.08
2019-03-22T10:00:05.462Z,100370.42
2019-03-22T10:10:06.562Z,100348.88
2019-03-22T10:20:08.695Z,100350.38
2019-03-22T10:30:12.599Z,100333.40
2019-03-22T10:40:15.064Z,100320.88
2019-03-22T10:50:15.852Z,100322.22
2019-03-22T11:00:17.785Z,100327.65
2019-03-22T11:10:18.717Z,100303.23
2019-03-22T11:20:20.589Z,100287.69
2019-03-22T11:30:21.242Z,100288.82
2019-03-22T11:40:22.042Z,100279.58
2019-03-22T11:50:23.052Z,100272.44
2019-03-22T12:00:25.545Z,100263.17
2019-03-22T12:10:26.340Z,100250.47
2019-03-22T12:20:28.099Z,100247.66
2019-03-22T12:30:28.898Z,100215.47
2019-03-22T12:40:29.696Z,100210.86
2019-03-22T12:50:30.474Z,100195.48
2019-03-22T13:00:34.446Z,100184.95
2019-03-22T13:10:38.086Z,100165.55
2019-03-22T13:20:38.842Z,100147.33
2019-03-22T13:30:39.547Z,100143.88
2019-03-22T13:40:41.402Z,100136.30
2019-03-22T13:50:42.173Z,100120.94
2019-03-22T14:00:42.958Z,100098.28
2019-03-22T14:10:43.883Z,100080.34
2019-03-22T14:20:44.817Z,100080.87
2019-03-22T14:30:46.907Z,100066.30
2019-03-22T14:40:48.899Z,100052.02
2019-03-22T14:50:49.874Z,100041.73
2019-03-22T15:00:51.627Z,100020.75
2019-03-22T15:10:53.496Z,100024.86
2019-03-22T15:20:56.206Z,100015.81
2019-03-22T15:31:02.877Z,100007.66
2019-03-22T15:41:03.660Z,100004.34
2019-03-22T15:51:04.522Z,100005.34
2019-03-22T16:01:06.221Z,99988.97
2019-03-22T16:11:07.143Z,99986.28
2019-03-22T16:21:07.867Z,99980.77
2019-03-22T16:31:08.724Z,99982.06
2019-03-22T16:41:09.475Z,99976.48
2019-03-22T16:51:10.218Z,99973.75
2019-03-22T17:01:10.950Z,99966.95
2019-03-22T17:11:13.735Z,99974.98
2019-03-22T17:21:14.542Z,99980.83
2019-03-22T17:31:15.335Z,99976.78
2019-03-22T17:41:16.093Z,99976.02
2019-03-22T17:51:16.955Z,99970.45
2019-03-22T18:01:17.930Z,99975.33
2019-03-22T18:11:19.123Z,99980.80
2019-03-22T18:21:21.124Z,99982.52
2019-03-22T18:31:22.111Z,99980.43
2019-03-22T18:41:22.937Z,99993.78
2019-03-22T18:51:23.694Z,99994.50
2019-03-22T19:01:24.571Z,99997.49
2019-03-22T19:11:25.600Z,99997.34
2019-03-22T19:21:26.357Z,99998.58
2019-03-22T19:31:27.250Z,100009.41
2019-03-22T19:41:28.955Z,100001.25
2019-03-22T19:51:29.744Z,99999.81
2019-03-22T20:01:31.511Z,99995.55
2019-03-22T20:11:32.366Z,99998.80
2019-03-22T20:21:33.092Z,100005.33
2019-03-22T20:31:33.992Z,99994.30
2019-03-22T20:41:34.769Z,99995.72
2019-03-22T20:51:36.667Z,99990.36
2019-03-22T21:01:37.462Z,99984.56
2019-03-22T21:11:38.202Z,99994.29
2019-03-22T21:21:40.139Z,99991.39
2019-03-22T21:31:42.610Z,99990.95
2019-03-22T21:41:43.454Z,99995.38
2019-03-22T21:51:45.377Z,99981.20
2019-03-22T22:01:46.201Z,99980.97
2019-03-22T22:11:47.138Z,99986.05
2019-03-22T22:21:49.013Z,99980.99
2019-03-22T22:31:51.087Z,99976.78
2019-03-22T22:41:56.663Z,99975.53
2019-03-22T22:51:57.383Z,99965.30
2019-03-22T23:02:00.856Z,99964.76
2019-03-22T23:12:08.386Z,99964.76
2019-03-22T23:22:09.184Z,99974.02
2019-03-22T23:32:13.999Z,99963.89
2019-03-22T23:42:14.741Z,99962.69
2019-03-22T23:52:15.670Z,99953.91
